עמוד ראשי
תמונות לווין תחזית 15-יוםאקליםתחזית ים סופות טרופיות ברק שדות תעופהשאלות נפוצות עלון אודות
מזג אוויר : אירופה אפריקה אמריקה הצפונית אמריקה הדרומית אסיה אוסטרליה-אוקיאניה אחר
שפות איש קשר

שטוטגרט, גרמניה

Echterdingen

קו רוחב: 48-41N, קו אורך: 009-13E, גובה: 396 m


METAR: EDDS 251750Z 05001KT 9999 FEW030 BKN050 12/08 Q1022 NOSIG
TAF: EDDS 251700Z 2518/2618 VRB03KT 9999 BKN030 BECMG 2600/2603 4000 BR BKN010 TEMPO 2603/2608 1200 BCFG OVC002 BECMG 2609/2612 6000 SCT015

זמן: 20:09 (18:09 UTC)

תצפית מזג אוויר נוכחית

הדו"ח נערך לפני 19 דקות, בשעה 17:50 UTC
רוח 1 קשר מכיוון צפון-מזרח
טמפרטורת 12°C
לחות 76%
לחץ 1022 hPa
ראות 10 קילומטר או יותר
מעט עננים בגובה 3000 רגל
עננים בינוניים בגובה 5000 רגל

שינוי יחידות

תחזית

הדו"ח נערך לפני 1 שעה ו 9 דקות, בשעה 17:00 UTC
תחזית בתוקף מ 25 ב 18 UTC עד 26 ב 18 UTC
רוח 3 קשר רוח עם כיוונים משתנים
ראות 10 קילומטר או יותר
עננים בינוניים בגובה 3000 רגל
יעשה מ
26 ב 00 UTC עד 26 ב 03 UTC
ראות: 4000 m
עננים בינוניים בגובה 1000 רגל
אד
זמנית מ -
26 ב 03 UTC עד 26 ב 08 UTC
ראות: 1200 m
מעונן בגובה 200 רגל
קרעי ערפל
יעשה מ
26 ב 09 UTC עד 26 ב 12 UTC
ראות: 6000 m
עננים פזורים בגובה 1500 רגל
המידע באתר זה מותנה של תניית פטור
מזג אוויר : אירופה אפריקה אמריקה הצפונית אמריקה הדרומית אסיה אוסטרליה-אוקיאניה אחר
תמונות לווין תחזית 15-יוםאקליםתחזית ים סופות טרופיות ברק שדות תעופהשאלות נפוצות שפות איש קשר עלון אודות